Time;durP1;ratioP1;P1;durP2;ratioP2;P2;SDS_P1;SDS_P2;PMS_P1;PMS_P2;Temp;Humidity;BMP_temperature;BMP_pressure;BME280_temperature;BME280_humidity;BME280_pressure;Samples;Min_cycle;Max_cycle;Signal;HPM_P1;HPM_P2
2021/01/11 00:00:38;;;;;;;28.08;18.25;;;-2.40;99.90;;;;;;4985769;28;20724;-76
2021/01/11 00:03:03;;;;;;;30.52;20.05;;;-2.30;99.90;;;;;;4979064;28;20036;-78
2021/01/11 00:05:29;;;;;;;33.78;22.08;;;-2.20;99.90;;;;;;4993039;28;20101;-76
2021/01/11 00:07:55;;;;;;;27.52;18.80;;;-2.20;99.90;;;;;;4989873;28;20041;-77
2021/01/11 00:10:20;;;;;;;27.60;20.05;;;-2.20;99.90;;;;;;4985030;28;20037;-77
2021/01/11 00:12:46;;;;;;;30.23;20.30;;;-2.30;99.90;;;;;;4969470;28;20073;-76
2021/01/11 00:15:15;;;;;;;27.65;20.45;;;-2.40;99.90;;;;;;4976889;28;20371;-76
2021/01/11 00:17:42;;;;;;;32.83;20.77;;;-2.50;99.90;;;;;;4977605;28;20027;-77
2021/01/11 00:20:08;;;;;;;31.55;20.63;;;-2.70;99.90;;;;;;4986927;28;20035;-76
2021/01/11 00:22:34;;;;;;;35.42;20.65;;;-2.80;99.90;;;;;;5000275;28;20138;-76
2021/01/11 00:25:00;;;;;;;36.40;21.20;;;-2.80;99.90;;;;;;4988936;28;20031;-76
2021/01/11 00:27:25;;;;;;;33.55;21.33;;;-2.60;99.90;;;;;;4988830;28;20484;-77
2021/01/11 00:29:51;;;;;;;34.55;22.08;;;-2.60;99.90;;;;;;4977435;28;20042;-75
2021/01/11 00:32:17;;;;;;;31.65;21.23;;;-2.70;99.90;;;;;;4996511;28;20110;-77
2021/01/11 00:34:42;;;;;;;27.63;19.67;;;-2.80;99.90;;;;;;4979144;28;20042;-76
2021/01/11 00:37:10;;;;;;;28.17;19.95;;;-2.80;99.90;;;;;;4987350;28;20108;-76
2021/01/11 00:39:35;;;;;;;35.10;21.80;;;-2.90;99.90;;;;;;4997378;28;20038;-74
2021/01/11 00:42:01;;;;;;;32.30;20.40;;;-2.90;99.90;;;;;;4984807;28;20027;-71
2021/01/11 00:44:28;;;;;;;31.30;21.75;;;-3.00;99.90;;;;;;4976766;28;20033;-73
2021/01/11 00:47:02;;;;;;;33.17;22.10;;;-3.00;99.90;;;;;;4975887;28;20022;-74
2021/01/11 00:49:28;;;;;;;32.35;22.05;;;-3.20;99.90;;;;;;4977376;28;20406;-75
2021/01/11 00:51:54;;;;;;;37.95;24.80;;;-3.20;99.90;;;;;;4981840;28;20026;-74
2021/01/11 00:54:21;;;;;;;35.65;21.17;;;-3.20;99.90;;;;;;4995493;28;20027;-73
2021/01/11 00:56:46;;;;;;;34.70;23.50;;;-3.20;99.90;;;;;;4992988;28;20513;-76
2021/01/11 00:59:13;;;;;;;35.25;22.10;;;-3.20;99.90;;;;;;4996386;28;20039;-75
2021/01/11 01:01:47;;;;;;;33.95;22.52;;;-3.20;99.90;;;;;;4993914;28;20106;-73
2021/01/11 01:04:12;;;;;;;37.80;23.90;;;-3.20;99.90;;;;;;4991545;28;20038;-75
2021/01/11 01:06:38;;;;;;;33.65;22.17;;;-3.20;99.90;;;;;;4994691;28;20053;-75
2021/01/11 01:09:03;;;;;;;34.92;22.02;;;-3.20;99.90;;;;;;4986904;28;20505;-74
2021/01/11 01:11:29;;;;;;;36.92;22.17;;;-3.20;99.90;;;;;;4982187;28;20406;-75
2021/01/11 01:13:55;;;;;;;34.75;21.52;;;-3.20;99.90;;;;;;5003449;28;20038;-75
2021/01/11 01:16:27;;;;;;;32.53;22.00;;;-3.20;99.90;;;;;;4977042;28;20031;-74
2021/01/11 01:18:53;;;;;;;37.85;22.25;;;-3.10;99.90;;;;;;4981592;28;20018;-75
2021/01/11 01:21:19;;;;;;;34.65;20.52;;;-3.10;99.90;;;;;;4981006;28;20355;-74
2021/01/11 01:23:45;;;;;;;30.77;21.48;;;-2.90;99.90;;;;;;4984155;28;20019;-75
2021/01/11 01:26:10;;;;;;;29.83;21.05;;;-3.00;99.90;;;;;;4977262;28;20038;-74
2021/01/11 01:28:36;;;;;;;32.67;21.05;;;-2.90;99.90;;;;;;4977346;28;20101;-75
2021/01/11 01:31:01;;;;;;;30.35;20.00;;;-2.80;99.90;;;;;;4977169;28;20397;-74
2021/01/11 01:33:27;;;;;;;36.17;23.05;;;-2.90;99.90;;;;;;4986179;28;20498;-75
2021/01/11 01:35:53;;;;;;;32.97;21.70;;;-2.90;99.90;;;;;;4977001;28;20015;-75
2021/01/11 01:38:18;;;;;;;32.03;20.52;;;-3.00;99.90;;;;;;4976978;28;20031;-74
2021/01/11 01:40:45;;;;;;;31.98;20.90;;;-3.10;99.90;;;;;;4974448;28;20033;-74
2021/01/11 01:43:11;;;;;;;34.10;22.30;;;-3.10;99.90;;;;;;4984827;28;20069;-75
2021/01/11 01:45:37;;;;;;;32.72;21.92;;;-3.10;99.90;;;;;;4978877;23;20482;-74
2021/01/11 01:48:04;;;;;;;37.45;22.85;;;-3.20;99.90;;;;;;4954475;29;20020;-74
2021/01/11 01:50:29;;;;;;;37.30;22.48;;;-3.20;99.90;;;;;;4957669;29;20028;-76
2021/01/11 01:52:55;;;;;;;32.30;22.38;;;-3.20;99.90;;;;;;4950803;29;20031;-75
2021/01/11 01:55:21;;;;;;;30.13;20.58;;;-3.20;99.90;;;;;;4938666;29;20032;-74
2021/01/11 01:57:49;;;;;;;34.47;22.02;;;-3.30;99.90;;;;;;4947248;29;20023;-76
2021/01/11 02:00:16;;;;;;;31.45;21.63;;;-3.40;99.90;;;;;;4957458;29;20055;-75
2021/01/11 02:02:43;;;;;;;31.60;21.58;;;-3.50;99.90;;;;;;4945142;29;20288;-75
2021/01/11 02:05:09;;;;;;;34.92;22.35;;;-3.50;99.90;;;;;;4936537;29;20126;-74
2021/01/11 02:07:42;;;;;;;36.50;21.92;;;-3.40;99.90;;;;;;4937277;29;20115;-74
2021/01/11 02:10:35;;;;;;;34.85;20.77;;;-3.40;99.90;;;;;;4946505;29;20107;-77
2021/01/11 02:13:31;;;;;;;34.38;20.98;;;-3.20;99.90;;;;;;4944122;29;20032;-74
2021/01/11 02:16:03;;;;;;;35.05;21.60;;;-3.20;99.90;;;;;;4961441;28;20084;-76
2021/01/11 02:19:06;;;;;;;33.13;21.02;;;-3.30;99.90;;;;;;4952496;29;20030;-76
2021/01/11 02:21:50;;;;;;;35.33;21.17;;;-3.40;99.90;;;;;;4940568;29;20388;-75
2021/01/11 02:24:54;;;;;;;36.75;20.20;;;-3.40;99.90;;;;;;4953736;28;20031;-75
2021/01/11 02:27:46;;;;;;;36.00;20.77;;;-3.50;99.90;;;;;;4934811;29;20028;-75
2021/01/11 02:30:26;;;;;;;29.00;19.10;;;-3.40;99.90;;;;;;4941633;29;20396;-76
2021/01/11 02:33:09;;;;;;;32.90;20.73;;;-3.40;99.90;;;;;;4967048;29;20023;-75
2021/01/11 02:36:05;;;;;;;33.03;21.42;;;-3.50;99.90;;;;;;4950751;29;20527;-75
2021/01/11 02:38:31;;;;;;;35.78;20.83;;;-3.60;99.90;;;;;;4949247;29;20115;-76
2021/01/11 02:40:57;;;;;;;35.30;21.75;;;-3.60;99.90;;;;;;4940188;29;20435;-74
2021/01/11 02:43:23;;;;;;;35.08;22.38;;;-3.60;99.90;;;;;;4941041;29;20122;-75
2021/01/11 02:45:49;;;;;;;33.67;22.67;;;-3.60;99.90;;;;;;4944720;29;20355;-75
2021/01/11 02:48:36;;;;;;;33.13;22.42;;;-3.70;99.90;;;;;;4958197;29;20082;-74
2021/01/11 02:51:16;;;;;;;33.58;20.90;;;-3.70;99.90;;;;;;4936203;29;20035;-76
2021/01/11 02:54:20;;;;;;;31.65;20.38;;;-3.70;99.90;;;;;;4938865;29;20030;-75
2021/01/11 02:57:04;;;;;;;35.45;22.35;;;-3.80;99.90;;;;;;4925905;29;20044;-76
2021/01/11 02:59:51;;;;;;;35.42;21.98;;;-3.80;99.90;;;;;;4943449;29;20031;-75
2021/01/11 03:02:19;;;;;;;34.03;20.40;;;-3.90;99.90;;;;;;4939410;29;20020;-76
2021/01/11 03:04:46;;;;;;;30.17;20.40;;;-3.90;99.90;;;;;;4937001;29;20020;-75
2021/01/11 03:07:12;;;;;;;35.25;21.73;;;-3.90;99.90;;;;;;4948378;29;20460;-75
2021/01/11 03:09:43;;;;;;;29.90;20.75;;;-3.90;99.90;;;;;;4943606;28;20035;-76
2021/01/11 03:12:10;;;;;;;31.25;20.65;;;-3.90;99.90;;;;;;4939691;29;20079;-75
2021/01/11 03:14:36;;;;;;;32.97;20.40;;;-3.90;99.90;;;;;;4931562;29;20564;-76
2021/01/11 03:17:02;;;;;;;35.03;22.33;;;-4.00;99.90;;;;;;4938806;29;20667;-75
2021/01/11 03:19:28;;;;;;;32.33;20.50;;;-4.00;99.90;;;;;;4947662;29;20114;-75
2021/01/11 03:21:54;;;;;;;34.33;22.80;;;-4.00;99.90;;;;;;4952304;29;20046;-76
2021/01/11 03:24:21;;;;;;;37.47;21.80;;;-3.90;99.90;;;;;;4953359;28;20138;-75
2021/01/11 03:26:48;;;;;;;33.15;22.13;;;-3.90;99.90;;;;;;4939276;29;20028;-75
2021/01/11 03:29:14;;;;;;;32.67;21.92;;;-3.90;99.90;;;;;;4954988;29;20027;-76
2021/01/11 03:31:40;;;;;;;32.58;22.08;;;-3.90;99.90;;;;;;4945831;29;20038;-74
2021/01/11 03:34:07;;;;;;;29.17;20.10;;;-3.90;99.90;;;;;;4958790;29;20047;-73
2021/01/11 03:36:32;;;;;;;33.03;21.13;;;-3.90;99.90;;;;;;4945705;29;20071;-77
2021/01/11 03:38:58;;;;;;;34.03;22.45;;;-4.00;99.90;;;;;;4945832;29;20034;-75
2021/01/11 03:41:24;;;;;;;32.55;20.55;;;-4.00;99.90;;;;;;4961343;29;20082;-74
2021/01/11 03:43:49;;;;;;;32.72;20.98;;;-4.00;99.90;;;;;;4965442;29;20034;-74
2021/01/11 03:46:17;;;;;;;30.50;19.65;;;-3.90;99.90;;;;;;4947004;29;20106;-75
2021/01/11 03:48:44;;;;;;;32.33;20.73;;;-3.90;99.90;;;;;;4945688;29;20062;-76
2021/01/11 03:51:10;;;;;;;30.15;20.77;;;-3.90;99.90;;;;;;4949214;29;20038;-76
2021/01/11 03:53:37;;;;;;;32.17;20.77;;;-3.90;99.90;;;;;;4940431;29;20487;-75
2021/01/11 03:56:06;;;;;;;28.88;19.98;;;-4.00;99.90;;;;;;4946243;29;20028;-75
2021/01/11 03:58:32;;;;;;;28.60;19.80;;;-4.00;99.90;;;;;;4948020;29;20050;-74
2021/01/11 04:00:59;;;;;;;28.38;18.88;;;-4.00;99.90;;;;;;4959335;29;20031;-75
2021/01/11 04:03:26;;;;;;;27.42;20.27;;;-3.90;99.90;;;;;;4958856;29;20035;-75
2021/01/11 04:05:52;;;;;;;27.05;18.05;;;-4.00;99.90;;;;;;4968321;28;20032;-74
2021/01/11 04:08:18;;;;;;;26.95;17.65;;;-3.90;99.90;;;;;;4963641;29;20031;-74
2021/01/11 04:10:44;;;;;;;29.75;19.25;;;-3.90;99.90;;;;;;4964717;29;20039;-74
2021/01/11 04:13:09;;;;;;;29.10;18.48;;;-4.00;99.90;;;;;;4959785;29;20032;-75
2021/01/11 04:15:35;;;;;;;27.15;17.85;;;-4.00;99.90;;;;;;4972245;28;20059;-75
2021/01/11 04:18:01;;;;;;;32.08;19.25;;;-4.00;99.90;;;;;;4964524;29;20034;-74
2021/01/11 04:20:27;;;;;;;29.40;17.98;;;-4.10;99.90;;;;;;4965562;29;20083;-75
2021/01/11 04:22:53;;;;;;;26.08;17.95;;;-4.10;99.90;;;;;;4974145;29;20038;-75
2021/01/11 04:25:18;;;;;;;28.63;18.58;;;-4.20;99.90;;;;;;4958542;29;20028;-75
2021/01/11 04:27:44;;;;;;;27.02;17.42;;;-4.20;99.90;;;;;;4986020;28;20028;-76
2021/01/11 04:30:11;;;;;;;29.70;18.10;;;-4.20;99.90;;;;;;4953586;29;20039;-74
2021/01/11 04:32:38;;;;;;;31.80;18.77;;;-4.20;99.90;;;;;;4956302;28;20042;-76
2021/01/11 04:35:09;;;;;;;32.08;19.02;;;-4.10;99.90;;;;;;4967695;28;20023;-75
2021/01/11 04:37:37;;;;;;;33.63;20.08;;;-4.20;99.90;;;;;;4961680;29;20098;-74
2021/01/11 04:40:06;;;;;;;33.53;20.20;;;-4.20;99.90;;;;;;4953547;29;20039;-75
2021/01/11 04:42:47;;;;;;;32.80;19.45;;;-4.30;99.90;;;;;;4970236;29;20033;-76
2021/01/11 04:45:16;;;;;;;32.38;20.67;;;-4.20;99.90;;;;;;4952088;29;20261;-75
2021/01/11 04:47:43;;;;;;;32.75;20.65;;;-4.20;99.90;;;;;;4950129;29;20020;-76
2021/01/11 04:50:09;;;;;;;32.30;20.05;;;-4.20;99.90;;;;;;4946109;29;20057;-76
2021/01/11 04:52:35;;;;;;;27.98;19.70;;;-4.20;99.90;;;;;;4950977;29;20027;-75
2021/01/11 04:55:06;;;;;;;30.08;19.08;;;-4.30;99.90;;;;;;4958297;28;20128;-75
2021/01/11 04:57:33;;;;;;;;;;;-4.30;99.90;;;;;;4975818;29;20046;-74
2021/01/11 05:00:04;;;;;;;26.38;17.27;;;-4.20;99.90;;;;;;4960257;28;19926;-75
2021/01/11 05:02:31;;;;;;;29.88;18.17;;;-4.10;99.90;;;;;;4967619;29;20050;-75
2021/01/11 05:04:56;;;;;;;27.52;19.35;;;-4.20;99.90;;;;;;4958753;29;20165;-75
2021/01/11 05:07:22;;;;;;;31.38;19.05;;;-4.20;99.90;;;;;;4960851;29;20023;-75
2021/01/11 05:09:49;;;;;;;31.92;20.58;;;-4.10;99.90;;;;;;4962085;29;20147;-76
2021/01/11 05:12:15;;;;;;;32.22;20.70;;;-4.20;99.90;;;;;;4955046;29;20035;-74
2021/01/11 05:14:42;;;;;;;29.98;20.20;;;-4.20;99.90;;;;;;4961166;29;20032;-78
2021/01/11 05:17:12;;;;;;;34.25;19.83;;;-4.10;99.90;;;;;;4959418;28;20034;-76
2021/01/11 05:19:38;;;;;;;31.08;19.08;;;-4.10;99.90;;;;;;4963247;29;20032;-75
2021/01/11 05:22:03;;;;;;;28.13;17.52;;;-4.00;99.90;;;;;;4973534;28;20059;-75
2021/01/11 05:24:37;;;;;;;32.05;18.95;;;-4.00;99.90;;;;;;4957520;29;20028;-76
2021/01/11 05:27:05;;;;;;;32.35;19.95;;;-4.00;99.90;;;;;;4956533;29;20031;-76
2021/01/11 05:29:31;;;;;;;32.13;20.70;;;-4.10;99.90;;;;;;4960532;29;20011;-76
2021/01/11 05:31:59;;;;;;;34.67;19.77;;;-4.20;99.90;;;;;;4965100;29;20034;-76
2021/01/11 05:34:44;;;;;;;28.55;17.85;;;-4.20;99.90;;;;;;4955536;29;20031;-77
2021/01/11 05:37:10;;;;;;;32.30;21.63;;;-4.00;99.90;;;;;;4959249;29;20011;-76
2021/01/11 05:39:36;;;;;;;31.02;20.00;;;-4.10;99.90;;;;;;4962909;29;20032;-76
2021/01/11 05:42:01;;;;;;;32.15;19.52;;;-4.10;99.90;;;;;;4969106;28;20229;-75
2021/01/11 05:44:27;;;;;;;31.00;19.85;;;-4.20;99.90;;;;;;4964691;28;20043;-76
2021/01/11 05:47:00;;;;;;;31.77;20.27;;;-4.30;99.90;;;;;;4972801;28;20019;-77
2021/01/11 05:49:28;;;;;;;36.50;20.63;;;-4.40;99.90;;;;;;4960695;28;20016;-76
2021/01/11 05:51:53;;;;;;;36.92;20.42;;;-4.40;99.90;;;;;;4967372;28;20091;-76
2021/01/11 05:54:26;;;;;;;33.40;19.75;;;-4.40;99.90;;;;;;4963580;28;20026;-76
2021/01/11 05:56:56;;;;;;;31.80;19.48;;;-4.40;99.90;;;;;;4963128;28;20031;-76
2021/01/11 05:59:23;;;;;;;31.50;19.00;;;-4.20;99.90;;;;;;4960066;28;20035;-76
2021/01/11 06:01:49;;;;;;;31.92;20.42;;;-4.10;99.90;;;;;;4970027;28;20039;-74
2021/01/11 06:04:15;;;;;;;33.08;20.33;;;-4.20;99.90;;;;;;4960816;28;20095;-76
2021/01/11 06:06:40;;;;;;;29.58;19.00;;;-4.00;99.90;;;;;;4959223;28;20083;-76
2021/01/11 06:09:09;;;;;;;33.13;19.10;;;-4.00;99.90;;;;;;4969049;28;20024;-77
2021/01/11 06:11:36;;;;;;;32.30;20.85;;;-4.10;99.90;;;;;;4987966;28;20051;-77
2021/01/11 06:14:04;;;;;;;37.08;21.55;;;-4.20;99.90;;;;;;4962236;28;20012;-78
2021/01/11 06:16:30;;;;;;;38.17;20.95;;;-4.30;99.90;;;;;;4962398;28;20024;-77
2021/01/11 06:18:56;;;;;;;31.20;20.05;;;-4.30;99.90;;;;;;4960834;28;20034;-77
2021/01/11 06:21:22;;;;;;;34.13;19.88;;;-4.30;99.90;;;;;;4957921;28;20071;-74
2021/01/11 06:24:08;;;;;;;30.92;19.60;;;-4.30;99.90;;;;;;4966776;28;20071;-76
2021/01/11 06:26:34;;;;;;;32.63;20.17;;;-4.40;99.90;;;;;;4967136;28;20023;-77
2021/01/11 06:28:59;;;;;;;36.22;21.75;;;-4.30;99.90;;;;;;4959423;28;20020;-76
2021/01/11 06:31:31;;;;;;;35.15;20.73;;;-4.30;99.90;;;;;;4959710;28;20051;-76
2021/01/11 06:33:58;;;;;;;31.85;20.45;;;-4.40;99.90;;;;;;4967785;28;20015;-77
2021/01/11 06:36:29;;;;;;;37.05;21.83;;;-4.40;99.90;;;;;;4963975;28;20031;-77
2021/01/11 06:38:56;;;;;;;33.75;20.13;;;-4.40;99.90;;;;;;4959653;28;20039;-77
2021/01/11 06:41:28;;;;;;;37.42;22.10;;;-4.50;99.90;;;;;;4975930;28;20024;-77
2021/01/11 06:44:01;;;;;;;37.70;21.88;;;-4.60;99.90;;;;;;4959932;28;20018;-77
2021/01/11 06:46:30;;;;;;;36.25;22.48;;;-4.60;99.90;;;;;;4977016;28;20019;-77
2021/01/11 06:48:57;;;;;;;36.95;20.90;;;-4.50;99.90;;;;;;4978967;28;20017;-77
2021/01/11 06:51:46;;;;;;;35.53;21.70;;;-4.50;99.90;;;;;;4965825;28;20125;-76
2021/01/11 06:54:12;;;;;;;35.58;19.88;;;-4.40;99.90;;;;;;4955721;29;20028;-76
2021/01/11 06:56:39;;;;;;;33.45;20.17;;;-4.50;99.90;;;;;;4952897;29;20031;-75
2021/01/11 06:59:17;;;;;;;41.70;23.42;;;-4.50;99.90;;;;;;4942024;29;20485;-77
2021/01/11 07:01:45;;;;;;;36.92;21.83;;;-4.40;99.90;;;;;;4952879;29;20034;-75
2021/01/11 07:04:35;;;;;;;39.80;22.05;;;-4.40;99.90;;;;;;4939607;29;20023;-76
2021/01/11 07:07:02;;;;;;;35.47;21.05;;;-4.40;99.90;;;;;;4949702;29;20028;-76
2021/01/11 07:09:28;;;;;;;35.67;21.08;;;-4.50;99.90;;;;;;4950574;29;20439;-74
2021/01/11 07:12:03;;;;;;;35.85;20.83;;;-4.40;99.90;;;;;;4949991;29;20107;-75
2021/01/11 07:14:55;;;;;;;35.30;21.67;;;-4.40;99.90;;;;;;4939610;29;20088;-75
2021/01/11 07:17:47;;;;;;;39.28;21.90;;;-4.30;99.90;;;;;;4945043;29;20031;-75
2021/01/11 07:20:15;;;;;;;37.67;20.83;;;-4.40;99.90;;;;;;4933874;29;20102;-75
2021/01/11 07:22:43;;;;;;;36.65;21.63;;;-4.40;99.90;;;;;;4947302;29;20464;-75
2021/01/11 07:25:18;;;;;;;38.58;22.23;;;-4.50;99.90;;;;;;4935340;28;20035;-75
2021/01/11 07:27:44;;;;;;;37.40;21.58;;;-4.40;99.90;;;;;;4953051;29;20030;-76
2021/01/11 07:30:11;;;;;;;40.00;20.88;;;-4.40;99.90;;;;;;4949360;29;20109;-76
2021/01/11 07:32:36;;;;;;;37.03;21.60;;;-4.50;99.90;;;;;;4945980;29;20031;-74
2021/01/11 07:35:03;;;;;;;35.47;21.52;;;-4.50;99.90;;;;;;4943993;29;20035;-74
2021/01/11 07:37:28;;;;;;;35.85;20.73;;;-4.40;99.90;;;;;;4947278;29;20042;-75
2021/01/11 07:39:54;;;;;;;33.83;20.25;;;-4.40;99.90;;;;;;4962256;29;20078;-74
2021/01/11 07:42:21;;;;;;;36.65;21.27;;;-4.40;99.90;;;;;;4942288;29;20522;-75
2021/01/11 07:44:47;;;;;;;35.08;21.15;;;-4.20;99.90;;;;;;4958505;28;20130;-74
2021/01/11 07:47:17;;;;;;;33.22;20.60;;;-4.20;99.90;;;;;;4956934;29;20046;-76
2021/01/11 07:49:44;;;;;;;33.47;20.83;;;-4.10;99.90;;;;;;4964252;29;20011;-73
2021/01/11 07:52:15;;;;;;;35.90;20.13;;;-4.10;99.90;;;;;;4956662;29;20095;-76
2021/01/11 07:54:41;;;;;;;35.67;21.48;;;-4.20;99.90;;;;;;4958585;29;20101;-75
2021/01/11 07:57:17;;;;;;;35.90;19.42;;;-4.10;99.90;;;;;;4956881;28;20047;-74
2021/01/11 07:59:44;;;;;;;37.53;20.17;;;-4.10;99.90;;;;;;4950192;29;20043;-75
2021/01/11 08:02:14;;;;;;;35.10;20.08;;;-4.20;99.90;;;;;;4955646;29;20051;-73
2021/01/11 08:04:41;;;;;;;33.58;20.50;;;-4.00;99.90;;;;;;4957186;29;20082;-72
2021/01/11 08:07:11;;;;;;;35.88;21.40;;;-3.90;99.90;;;;;;4977019;28;20262;-74
2021/01/11 08:09:38;;;;;;;31.92;19.65;;;-3.80;99.90;;;;;;4962358;29;20062;-73
2021/01/11 08:12:08;;;;;;;33.45;20.75;;;-3.60;99.90;;;;;;4956144;29;20043;-74
2021/01/11 08:14:34;;;;;;;40.55;21.27;;;-3.50;99.50;;;;;;4980399;28;20026;-74
2021/01/11 08:17:01;;;;;;;31.45;19.50;;;-3.50;97.60;;;;;;4970649;29;20034;-74
2021/01/11 08:19:27;;;;;;;27.40;18.35;;;-3.40;91.20;;;;;;4957068;29;20020;-74
2021/01/11 08:22:00;;;;;;;29.05;18.25;;;-3.30;84.00;;;;;;4972286;28;20059;-74
2021/01/11 08:24:27;;;;;;;28.75;19.25;;;-3.30;75.20;;;;;;4960697;28;20039;-74
2021/01/11 08:27:18;;;;;;;31.70;20.38;;;-3.20;49.00;;;;;;4961408;28;20031;-75
2021/01/11 08:29:44;;;;;;;33.95;19.25;;;-3.30;60.50;;;;;;4957437;29;20048;-72
2021/01/11 08:32:11;;;;;;;31.27;19.27;;;-3.50;99.90;;;;;;4974484;28;20042;-73
2021/01/11 08:34:39;;;;;;;40.30;19.10;;;-3.50;99.90;;;;;;4958451;29;20080;-74
2021/01/11 08:37:29;;;;;;;39.70;20.05;;;-3.60;99.90;;;;;;4955733;29;20038;-73
2021/01/11 08:39:58;;;;;;;28.88;19.48;;;-3.50;97.60;;;;;;4966074;29;20024;-73
2021/01/11 08:42:30;;;;;;;29.73;20.88;;;-3.40;85.20;;;;;;4961751;29;20043;-72
2021/01/11 08:45:26;;;;;;;32.70;18.60;;;-3.40;83.00;;;;;;4967784;29;20086;-73
2021/01/11 08:48:15;;;;;;;31.98;18.92;;;-3.40;98.00;;;;;;4966956;28;20034;-74
2021/01/11 08:50:45;;;;;;;28.23;17.38;;;-3.40;92.50;;;;;;4964052;28;20045;-73
2021/01/11 08:53:27;;;;;;;31.80;21.50;;;-3.30;98.60;;;;;;4964188;29;20063;-73
2021/01/11 08:56:10;;;;;;;30.20;19.50;;;-3.30;67.30;;;;;;4947645;29;20025;-75
2021/01/11 08:58:37;;;;;;;31.60;19.33;;;-3.30;99.90;;;;;;4966353;29;20051;-75
2021/01/11 09:01:16;;;;;;;30.05;20.30;;;-3.20;75.60;;;;;;4964850;29;20032;-72
2021/01/11 09:03:53;;;;;;;31.35;18.88;;;-3.20;61.70;;;;;;4958882;29;20079;-73
2021/01/11 09:06:41;;;;;;;34.08;19.10;;;-3.20;77.90;;;;;;4962138;28;20032;-73
2021/01/11 09:09:15;;;;;;;32.33;18.88;;;-3.10;30.50;;;;;;4962498;28;20028;-73
2021/01/11 09:11:41;;;;;;;30.77;18.48;;;-3.10;41.90;;;;;;4970692;28;20051;-73
2021/01/11 09:14:09;;;;;;;33.38;19.02;;;-3.00;17.80;;;;;;4956888;28;20028;-73
2021/01/11 09:16:35;;;;;;;33.90;18.70;;;-2.80;1.00;;;;;;4958471;29;20028;-72
2021/01/11 09:19:16;;;;;;;37.65;19.75;;;-2.70;1.00;;;;;;4956391;29;20027;-74
2021/01/11 09:21:43;;;;;;;29.60;19.00;;;-2.50;1.00;;;;;;4950976;29;20082;-74
2021/01/11 09:24:10;;;;;;;27.73;18.33;;;-2.50;1.00;;;;;;4948675;29;20127;-73
2021/01/11 09:26:38;;;;;;;26.63;18.08;;;-2.40;1.00;;;;;;4958386;29;20040;-72
2021/01/11 09:29:05;;;;;;;24.58;17.23;;;-2.40;1.00;;;;;;4954258;29;20034;-74
2021/01/11 09:31:31;;;;;;;32.60;20.60;;;-2.30;1.00;;;;;;4938824;29;20044;-73
2021/01/11 09:33:57;;;;;;;26.73;18.50;;;-2.20;1.00;;;;;;4944061;29;20095;-73
2021/01/11 09:36:22;;;;;;;28.35;18.48;;;-2.40;1.00;;;;;;4945769;29;20083;-74
2021/01/11 09:38:49;;;;;;;30.60;19.42;;;-2.40;1.00;;;;;;4946183;29;20039;-74
2021/01/11 09:41:15;;;;;;;30.98;20.38;;;-2.30;1.00;;;;;;4947642;29;20034;-74
2021/01/11 09:43:44;;;;;;;34.65;19.10;;;-2.20;1.00;;;;;;4956538;29;20024;-74
2021/01/11 09:46:12;;;;;;;29.77;18.45;;;-2.20;1.00;;;;;;4952073;29;20042;-74
2021/01/11 09:48:38;;;;;;;34.72;19.50;;;-2.00;1.00;;;;;;4960895;29;20027;-73
2021/01/11 09:51:04;;;;;;;32.88;18.65;;;-1.90;1.00;;;;;;4943301;29;20028;-74
2021/01/11 09:53:30;;;;;;;33.80;18.17;;;-1.80;99.90;;;;;;4945048;29;20031;-74
2021/01/11 09:55:56;;;;;;;29.08;17.80;;;-1.80;1.00;;;;;;4951112;29;20086;-75
2021/01/11 09:58:22;;;;;;;33.08;18.13;;;-1.70;1.00;;;;;;4946887;29;20032;-74
2021/01/11 10:00:47;;;;;;;33.15;20.33;;;-1.60;99.90;;;;;;4942698;29;20042;-74
2021/01/11 10:03:13;;;;;;;42.15;18.70;;;-1.50;99.90;;;;;;4959976;29;20110;-74
2021/01/11 10:05:38;;;;;;;32.40;19.05;;;-1.40;99.90;;;;;;4950731;28;20040;-74
2021/01/11 10:08:04;;;;;;;28.77;17.48;;;-1.40;99.90;;;;;;4949438;29;20028;-73
2021/01/11 10:10:30;;;;;;;30.13;16.40;;;-1.50;99.90;;;;;;4949157;29;20060;-72
2021/01/11 10:12:56;;;;;;;35.33;18.15;;;-1.50;99.90;;;;;;4946461;29;20106;-75
2021/01/11 10:15:21;;;;;;;33.22;18.10;;;-1.40;99.90;;;;;;4957581;28;20515;-72
2021/01/11 10:17:47;;;;;;;32.58;17.98;;;-1.30;99.90;;;;;;4957473;29;20154;-73
2021/01/11 10:20:13;;;;;;;30.45;17.55;;;-1.30;99.90;;;;;;4946637;29;20408;-72
2021/01/11 10:22:39;;;;;;;27.35;17.05;;;-1.20;99.90;;;;;;4950952;29;20024;-71
2021/01/11 10:25:06;;;;;;;31.95;17.70;;;-1.20;99.90;;;;;;4955199;28;20039;-72
2021/01/11 10:27:32;;;;;;;36.97;18.95;;;-1.20;99.90;;;;;;4957643;29;20027;-75
2021/01/11 10:29:58;;;;;;;36.45;19.20;;;-1.10;99.90;;;;;;4951311;29;20043;-72
2021/01/11 10:32:24;;;;;;;41.28;19.33;;;-1.10;99.90;;;;;;4949005;29;20058;-74
2021/01/11 10:34:49;;;;;;;32.53;18.45;;;-1.10;99.90;;;;;;4946617;29;20079;-73
2021/01/11 10:37:15;;;;;;;29.52;18.25;;;-1.00;99.90;;;;;;4939631;29;20051;-78
2021/01/11 10:39:41;;;;;;;39.28;19.10;;;-0.90;99.90;;;;;;4950765;29;20098;-78
2021/01/11 10:42:07;;;;;;;35.15;18.17;;;-0.90;99.90;;;;;;4946288;29;20038;-77
2021/01/11 10:44:34;;;;;;;30.17;18.58;;;-0.80;99.90;;;;;;4943255;29;20036;-79
2021/01/11 10:47:00;;;;;;;34.72;19.95;;;-0.80;99.90;;;;;;4944012;29;20026;-77
2021/01/11 10:49:27;;;;;;;29.95;17.38;;;-0.70;99.90;;;;;;4963047;29;20034;-77
2021/01/11 10:51:55;;;;;;;27.08;18.10;;;-0.60;99.90;;;;;;4950804;28;20028;-75
2021/01/11 10:54:22;;;;;;;27.25;18.38;;;-0.80;99.90;;;;;;4940577;28;20107;-76
2021/01/11 10:56:50;;;;;;;29.90;17.90;;;-0.60;99.90;;;;;;4939736;29;20023;-76
2021/01/11 10:59:16;;;;;;;29.60;17.10;;;-0.50;99.90;;;;;;4933353;29;20087;-76
2021/01/11 11:01:42;;;;;;;25.67;16.70;;;-0.60;99.90;;;;;;4956493;29;20043;-75
2021/01/11 11:04:07;;;;;;;25.77;17.42;;;-0.60;99.90;;;;;;4963395;28;20071;-74
2021/01/11 11:06:33;;;;;;;27.90;16.90;;;-0.50;99.90;;;;;;4956876;29;20048;-78
2021/01/11 11:08:58;;;;;;;27.38;15.85;;;-0.50;99.90;;;;;;4954826;29;20023;-77
2021/01/11 11:11:24;;;;;;;30.52;16.33;;;-0.50;99.90;;;;;;4960230;29;20035;-79
2021/01/11 11:13:49;;;;;;;27.02;17.13;;;-0.50;99.90;;;;;;4954959;29;20016;-78
2021/01/11 11:16:15;;;;;;;27.17;17.67;;;-0.40;99.90;;;;;;4954625;29;20066;-78
2021/01/11 11:18:42;;;;;;;26.08;16.25;;;-0.40;99.90;;;;;;4945467;29;20035;-77
2021/01/11 11:21:09;;;;;;;25.98;17.35;;;-0.40;99.90;;;;;;4956862;28;20104;-78
2021/01/11 11:23:36;;;;;;;31.90;17.55;;;-0.40;99.90;;;;;;4953288;29;20035;-76
2021/01/11 11:26:02;;;;;;;33.50;18.45;;;-0.40;99.90;;;;;;4953862;29;20026;-77
2021/01/11 11:28:29;;;;;;;29.30;17.23;;;-0.30;99.90;;;;;;4950737;29;20031;-78
2021/01/11 11:30:55;;;;;;;30.23;17.40;;;-0.20;99.90;;;;;;4938910;29;20517;-79
2021/01/11 11:33:20;;;;;;;33.97;16.50;;;-0.20;99.90;;;;;;4943412;29;20024;-77
2021/01/11 11:35:46;;;;;;;27.50;16.55;;;-0.30;99.90;;;;;;4943411;29;20024;-77
2021/01/11 11:38:11;;;;;;;26.38;16.65;;;-0.20;99.90;;;;;;4958926;29;20335;-78
2021/01/11 11:40:38;;;;;;;27.13;17.95;;;-0.30;99.90;;;;;;4956751;29;20027;-76
2021/01/11 11:43:04;;;;;;;31.48;17.35;;;0.00;99.90;;;;;;4949680;29;20027;-76
2021/01/11 11:45:31;;;;;;;25.50;16.52;;;0.10;76.00;;;;;;4953201;29;20031;-78
2021/01/11 11:47:57;;;;;;;26.08;15.32;;;0.10;93.00;;;;;;4949939;29;20039;-77
2021/01/11 11:50:23;;;;;;;22.70;14.73;;;0.40;49.40;;;;;;4943905;29;20095;-77
2021/01/11 11:52:48;;;;;;;29.98;16.55;;;0.40;24.20;;;;;;4952460;29;20031;-76
2021/01/11 11:55:14;;;;;;;31.73;17.35;;;0.40;1.00;;;;;;4939273;29;20460;-74
2021/01/11 11:57:44;;;;;;;22.00;14.88;;;0.40;16.60;;;;;;4946156;29;20102;-78
2021/01/11 12:00:18;;;;;;;20.08;15.00;;;0.60;2.70;;;;;;4947844;29;20040;-77
2021/01/11 12:02:46;;;;;;;25.48;16.30;;;0.60;1.00;;;;;;4908257;28;20051;-78
2021/01/11 12:05:14;;;;;;;27.00;16.40;;;0.70;1.00;;;;;;4953487;28;20036;-80
2021/01/11 12:07:46;;;;;;;23.63;14.45;;;0.70;1.00;;;;;;4951461;29;20118;-77
2021/01/11 12:10:12;;;;;;;23.63;14.13;;;0.90;1.00;;;;;;4982960;28;20046;-76
2021/01/11 12:12:44;;;;;;;24.77;14.45;;;1.00;1.00;;;;;;4954003;29;20036;-77
2021/01/11 12:15:10;;;;;;;21.52;14.73;;;0.90;99.90;;;;;;4957128;29;20032;-78
2021/01/11 12:17:36;;;;;;;19.20;13.07;;;1.10;99.90;;;;;;4949671;29;20031;-80
2021/01/11 12:20:04;;;;;;;19.67;13.45;;;1.10;99.90;;;;;;4947604;29;20027;-78
2021/01/11 12:22:30;;;;;;;19.75;13.88;;;1.00;99.90;;;;;;4949022;29;20099;-80
2021/01/11 12:24:56;;;;;;;20.05;14.02;;;1.00;99.90;;;;;;4948741;29;20038;-78
2021/01/11 12:27:31;;;;;;;16.73;12.07;;;1.00;99.90;;;;;;4947513;29;20043;-76
2021/01/11 12:30:06;;;;;;;16.27;11.30;;;1.00;99.90;;;;;;4944980;29;20032;-76
2021/01/11 12:32:39;;;;;;;24.92;11.98;;;1.00;3.90;;;;;;4944306;29;20024;-76
2021/01/11 12:35:08;;;;;;;17.55;11.18;;;0.90;99.90;;;;;;4941915;28;20028;-79
2021/01/11 12:37:44;;;;;;;16.13;11.68;;;1.00;99.90;;;;;;4950189;29;20115;-78